sensor_id;sensor_type;location;lat;lon;timestamp;P1;durP1;ratioP1;P2;durP2;ratioP2
22531;SDS011;11432;46.924;7.114;2022-07-15T00:02:02;1.77;;;1.10;;
22531;SDS011;11432;46.924;7.114;2022-07-15T00:04:27;5.32;;;1.25;;
22531;SDS011;11432;46.924;7.114;2022-07-15T00:06:53;2.28;;;1.30;;
22531;SDS011;11432;46.924;7.114;2022-07-15T00:09:19;4.50;;;1.35;;
22531;SDS011;11432;46.924;7.114;2022-07-15T00:11:44;2.08;;;1.38;;
22531;SDS011;11432;46.924;7.114;2022-07-15T00:14:10;1.63;;;1.05;;
22531;SDS011;11432;46.924;7.114;2022-07-15T00:16:35;1.75;;;1.13;;
22531;SDS011;11432;46.924;7.114;2022-07-15T00:19:01;6.13;;;1.30;;
22531;SDS011;11432;46.924;7.114;2022-07-15T00:21:27;4.28;;;1.13;;
22531;SDS011;11432;46.924;7.114;2022-07-15T00:23:53;4.43;;;1.15;;
22531;SDS011;11432;46.924;7.114;2022-07-15T00:26:18;2.83;;;1.50;;
22531;SDS011;11432;46.924;7.114;2022-07-15T00:28:44;2.45;;;1.30;;
22531;SDS011;11432;46.924;7.114;2022-07-15T00:31:09;4.13;;;1.20;;
22531;SDS011;11432;46.924;7.114;2022-07-15T00:33:35;5.30;;;1.40;;
22531;SDS011;11432;46.924;7.114;2022-07-15T00:36:01;3.83;;;1.55;;
22531;SDS011;11432;46.924;7.114;2022-07-15T00:38:26;1.80;;;1.20;;
22531;SDS011;11432;46.924;7.114;2022-07-15T00:40:52;4.85;;;1.10;;
22531;SDS011;11432;46.924;7.114;2022-07-15T00:43:18;3.85;;;1.42;;
22531;SDS011;11432;46.924;7.114;2022-07-15T00:45:44;5.30;;;1.40;;
22531;SDS011;11432;46.924;7.114;2022-07-15T00:48:10;3.28;;;1.15;;
22531;SDS011;11432;46.924;7.114;2022-07-15T00:50:36;2.05;;;1.23;;
22531;SDS011;11432;46.924;7.114;2022-07-15T00:53:05;6.47;;;1.42;;
22531;SDS011;11432;46.924;7.114;2022-07-15T00:55:42;1.98;;;1.27;;
22531;SDS011;11432;46.924;7.114;2022-07-15T00:58:20;2.75;;;1.23;;
22531;SDS011;11432;46.924;7.114;2022-07-15T01:00:48;2.83;;;1.38;;
22531;SDS011;11432;46.924;7.114;2022-07-15T01:03:15;3.03;;;1.20;;
22531;SDS011;11432;46.924;7.114;2022-07-15T01:05:42;3.15;;;1.40;;
22531;SDS011;11432;46.924;7.114;2022-07-15T01:08:09;3.00;;;1.40;;
22531;SDS011;11432;46.924;7.114;2022-07-15T01:10:35;1.63;;;1.10;;
22531;SDS011;11432;46.924;7.114;2022-07-15T01:13:01;3.25;;;1.20;;
22531;SDS011;11432;46.924;7.114;2022-07-15T01:15:28;2.13;;;1.20;;
22531;SDS011;11432;46.924;7.114;2022-07-15T01:17:56;2.83;;;1.10;;
22531;SDS011;11432;46.924;7.114;2022-07-15T01:20:23;2.75;;;1.13;;
22531;SDS011;11432;46.924;7.114;2022-07-15T01:22:48;3.45;;;1.60;;
22531;SDS011;11432;46.924;7.114;2022-07-15T01:25:14;3.75;;;1.30;;
22531;SDS011;11432;46.924;7.114;2022-07-15T01:27:40;5.28;;;1.33;;
22531;SDS011;11432;46.924;7.114;2022-07-15T01:30:06;4.10;;;1.38;;
22531;SDS011;11432;46.924;7.114;2022-07-15T01:32:32;3.45;;;1.50;;
22531;SDS011;11432;46.924;7.114;2022-07-15T01:34:58;2.15;;;1.27;;
22531;SDS011;11432;46.924;7.114;2022-07-15T01:37:24;3.92;;;1.52;;
22531;SDS011;11432;46.924;7.114;2022-07-15T01:39:50;3.58;;;1.13;;
22531;SDS011;11432;46.924;7.114;2022-07-15T01:42:16;3.72;;;1.33;;
22531;SDS011;11432;46.924;7.114;2022-07-15T01:44:41;3.50;;;1.27;;
22531;SDS011;11432;46.924;7.114;2022-07-15T01:47:07;2.20;;;1.20;;
22531;SDS011;11432;46.924;7.114;2022-07-15T01:49:33;1.85;;;1.20;;
22531;SDS011;11432;46.924;7.114;2022-07-15T01:51:59;2.25;;;1.50;;
22531;SDS011;11432;46.924;7.114;2022-07-15T01:54:27;1.90;;;1.30;;
22531;SDS011;11432;46.924;7.114;2022-07-15T01:56:54;2.28;;;1.20;;
22531;SDS011;11432;46.924;7.114;2022-07-15T01:59:21;1.85;;;1.45;;
22531;SDS011;11432;46.924;7.114;2022-07-15T02:01:48;2.85;;;1.35;;
22531;SDS011;11432;46.924;7.114;2022-07-15T02:04:14;1.40;;;1.10;;
22531;SDS011;11432;46.924;7.114;2022-07-15T02:06:40;3.53;;;1.15;;
22531;SDS011;11432;46.924;7.114;2022-07-15T02:09:05;2.88;;;1.50;;
22531;SDS011;11432;46.924;7.114;2022-07-15T02:11:31;2.80;;;1.30;;
22531;SDS011;11432;46.924;7.114;2022-07-15T02:13:57;1.73;;;1.48;;
22531;SDS011;11432;46.924;7.114;2022-07-15T02:16:25;3.50;;;1.20;;
22531;SDS011;11432;46.924;7.114;2022-07-15T02:18:51;3.58;;;1.27;;
22531;SDS011;11432;46.924;7.114;2022-07-15T02:21:17;2.45;;;1.17;;
22531;SDS011;11432;46.924;7.114;2022-07-15T02:23:43;5.40;;;1.20;;
22531;SDS011;11432;46.924;7.114;2022-07-15T02:26:08;3.25;;;1.20;;
22531;SDS011;11432;46.924;7.114;2022-07-15T02:28:34;4.03;;;1.30;;
22531;SDS011;11432;46.924;7.114;2022-07-15T02:31:00;3.50;;;1.40;;
22531;SDS011;11432;46.924;7.114;2022-07-15T02:33:25;7.07;;;1.40;;
22531;SDS011;11432;46.924;7.114;2022-07-15T02:35:51;3.13;;;1.55;;
22531;SDS011;11432;46.924;7.114;2022-07-15T02:38:17;2.28;;;1.15;;
22531;SDS011;11432;46.924;7.114;2022-07-15T02:40:43;6.25;;;1.38;;
22531;SDS011;11432;46.924;7.114;2022-07-15T02:43:09;1.98;;;1.40;;
22531;SDS011;11432;46.924;7.114;2022-07-15T02:45:35;2.03;;;1.23;;
22531;SDS011;11432;46.924;7.114;2022-07-15T02:48:02;3.15;;;1.48;;
22531;SDS011;11432;46.924;7.114;2022-07-15T02:50:28;6.13;;;1.20;;
22531;SDS011;11432;46.924;7.114;2022-07-15T02:52:54;3.88;;;1.40;;
22531;SDS011;11432;46.924;7.114;2022-07-15T02:55:20;3.17;;;1.10;;
22531;SDS011;11432;46.924;7.114;2022-07-15T02:57:46;2.65;;;1.25;;
22531;SDS011;11432;46.924;7.114;2022-07-15T03:00:13;3.85;;;1.63;;
22531;SDS011;11432;46.924;7.114;2022-07-15T03:05:07;2.85;;;1.50;;
22531;SDS011;11432;46.924;7.114;2022-07-15T03:07:33;2.45;;;1.42;;
22531;SDS011;11432;46.924;7.114;2022-07-15T03:09:59;3.17;;;1.42;;
22531;SDS011;11432;46.924;7.114;2022-07-15T03:12:25;2.78;;;1.17;;
22531;SDS011;11432;46.924;7.114;2022-07-15T03:14:50;4.10;;;1.30;;
22531;SDS011;11432;46.924;7.114;2022-07-15T03:17:16;2.45;;;1.27;;
22531;SDS011;11432;46.924;7.114;2022-07-15T03:19:42;3.28;;;1.33;;
22531;SDS011;11432;46.924;7.114;2022-07-15T03:22:08;2.70;;;1.20;;
22531;SDS011;11432;46.924;7.114;2022-07-15T03:24:34;2.03;;;1.38;;
22531;SDS011;11432;46.924;7.114;2022-07-15T03:27:00;4.15;;;1.45;;
22531;SDS011;11432;46.924;7.114;2022-07-15T03:29:26;4.72;;;1.40;;
22531;SDS011;11432;46.924;7.114;2022-07-15T03:31:54;2.75;;;1.27;;
22531;SDS011;11432;46.924;7.114;2022-07-15T03:34:20;3.17;;;1.40;;
22531;SDS011;11432;46.924;7.114;2022-07-15T03:36:46;2.92;;;1.50;;
22531;SDS011;11432;46.924;7.114;2022-07-15T03:39:11;1.55;;;1.45;;
22531;SDS011;11432;46.924;7.114;2022-07-15T03:41:37;3.60;;;1.30;;
22531;SDS011;11432;46.924;7.114;2022-07-15T03:44:03;1.65;;;1.20;;
22531;SDS011;11432;46.924;7.114;2022-07-15T03:46:29;1.95;;;1.10;;
22531;SDS011;11432;46.924;7.114;2022-07-15T03:48:55;3.00;;;1.40;;
22531;SDS011;11432;46.924;7.114;2022-07-15T03:51:22;2.42;;;1.27;;
22531;SDS011;11432;46.924;7.114;2022-07-15T03:53:56;3.05;;;1.50;;
22531;SDS011;11432;46.924;7.114;2022-07-15T03:56:28;2.88;;;1.40;;
22531;SDS011;11432;46.924;7.114;2022-07-15T03:58:55;3.17;;;1.67;;
22531;SDS011;11432;46.924;7.114;2022-07-15T04:01:21;4.22;;;1.75;;
22531;SDS011;11432;46.924;7.114;2022-07-15T04:03:47;4.05;;;1.70;;
22531;SDS011;11432;46.924;7.114;2022-07-15T04:06:13;4.00;;;1.75;;
22531;SDS011;11432;46.924;7.114;2022-07-15T04:08:40;2.20;;;1.70;;
22531;SDS011;11432;46.924;7.114;2022-07-15T04:11:05;2.78;;;1.63;;
22531;SDS011;11432;46.924;7.114;2022-07-15T04:13:31;2.80;;;1.60;;
22531;SDS011;11432;46.924;7.114;2022-07-15T04:15:57;4.85;;;1.80;;
22531;SDS011;11432;46.924;7.114;2022-07-15T04:18:22;3.72;;;1.77;;
22531;SDS011;11432;46.924;7.114;2022-07-15T04:20:48;3.58;;;1.65;;
22531;SDS011;11432;46.924;7.114;2022-07-15T04:23:14;4.30;;;1.40;;
22531;SDS011;11432;46.924;7.114;2022-07-15T04:25:40;5.63;;;1.80;;
22531;SDS011;11432;46.924;7.114;2022-07-15T04:28:06;5.57;;;1.48;;
22531;SDS011;11432;46.924;7.114;2022-07-15T04:30:32;3.72;;;1.70;;
22531;SDS011;11432;46.924;7.114;2022-07-15T04:32:58;3.97;;;1.80;;
22531;SDS011;11432;46.924;7.114;2022-07-15T04:35:23;4.32;;;1.80;;
22531;SDS011;11432;46.924;7.114;2022-07-15T04:37:49;5.10;;;1.75;;
22531;SDS011;11432;46.924;7.114;2022-07-15T04:40:15;4.18;;;2.05;;
22531;SDS011;11432;46.924;7.114;2022-07-15T04:42:41;7.05;;;1.90;;
22531;SDS011;11432;46.924;7.114;2022-07-15T04:45:06;5.78;;;1.95;;
22531;SDS011;11432;46.924;7.114;2022-07-15T04:47:32;2.53;;;1.80;;
22531;SDS011;11432;46.924;7.114;2022-07-15T04:49:58;6.20;;;2.00;;
22531;SDS011;11432;46.924;7.114;2022-07-15T04:52:43;5.55;;;2.00;;
22531;SDS011;11432;46.924;7.114;2022-07-15T04:55:09;5.38;;;2.40;;
22531;SDS011;11432;46.924;7.114;2022-07-15T04:57:35;3.50;;;2.30;;
22531;SDS011;11432;46.924;7.114;2022-07-15T05:00:01;4.05;;;1.95;;
22531;SDS011;11432;46.924;7.114;2022-07-15T05:02:27;3.95;;;2.25;;
22531;SDS011;11432;46.924;7.114;2022-07-15T05:04:53;4.45;;;2.55;;
22531;SDS011;11432;46.924;7.114;2022-07-15T05:07:19;6.45;;;2.38;;
22531;SDS011;11432;46.924;7.114;2022-07-15T05:09:44;3.75;;;2.50;;
22531;SDS011;11432;46.924;7.114;2022-07-15T05:12:10;6.43;;;2.33;;
22531;SDS011;11432;46.924;7.114;2022-07-15T05:14:36;5.80;;;2.53;;
22531;SDS011;11432;46.924;7.114;2022-07-15T05:17:05;4.38;;;2.50;;
22531;SDS011;11432;46.924;7.114;2022-07-15T05:19:31;5.18;;;2.88;;
22531;SDS011;11432;46.924;7.114;2022-07-15T05:21:57;4.80;;;2.25;;
22531;SDS011;11432;46.924;7.114;2022-07-15T05:24:23;5.20;;;2.50;;
22531;SDS011;11432;46.924;7.114;2022-07-15T05:26:48;9.00;;;2.80;;
22531;SDS011;11432;46.924;7.114;2022-07-15T05:29:14;9.32;;;3.20;;
22531;SDS011;11432;46.924;7.114;2022-07-15T05:31:40;6.47;;;2.47;;
22531;SDS011;11432;46.924;7.114;2022-07-15T05:34:05;6.15;;;2.78;;
22531;SDS011;11432;46.924;7.114;2022-07-15T05:36:31;4.28;;;2.40;;
22531;SDS011;11432;46.924;7.114;2022-07-15T05:38:57;10.23;;;2.60;;
22531;SDS011;11432;46.924;7.114;2022-07-15T05:41:22;8.52;;;2.67;;
22531;SDS011;11432;46.924;7.114;2022-07-15T05:43:48;7.57;;;2.67;;
22531;SDS011;11432;46.924;7.114;2022-07-15T05:46:14;10.93;;;2.78;;
22531;SDS011;11432;46.924;7.114;2022-07-15T05:48:39;6.85;;;2.88;;
22531;SDS011;11432;46.924;7.114;2022-07-15T05:51:06;4.95;;;2.80;;
22531;SDS011;11432;46.924;7.114;2022-07-15T05:53:32;9.88;;;2.80;;
22531;SDS011;11432;46.924;7.114;2022-07-15T05:55:58;8.27;;;3.05;;
22531;SDS011;11432;46.924;7.114;2022-07-15T05:58:24;9.13;;;2.97;;
22531;SDS011;11432;46.924;7.114;2022-07-15T06:00:50;10.63;;;2.75;;
22531;SDS011;11432;46.924;7.114;2022-07-15T06:03:17;7.22;;;2.80;;
22531;SDS011;11432;46.924;7.114;2022-07-15T06:05:43;5.35;;;2.92;;
22531;SDS011;11432;46.924;7.114;2022-07-15T06:08:09;7.38;;;2.70;;
22531;SDS011;11432;46.924;7.114;2022-07-15T06:10:35;6.22;;;2.45;;
22531;SDS011;11432;46.924;7.114;2022-07-15T06:13:01;6.72;;;2.83;;
22531;SDS011;11432;46.924;7.114;2022-07-15T06:15:28;11.73;;;2.85;;
22531;SDS011;11432;46.924;7.114;2022-07-15T06:17:55;6.25;;;3.25;;
22531;SDS011;11432;46.924;7.114;2022-07-15T06:20:21;8.77;;;2.97;;
22531;SDS011;11432;46.924;7.114;2022-07-15T06:22:47;9.88;;;3.08;;
22531;SDS011;11432;46.924;7.114;2022-07-15T06:25:13;6.68;;;3.15;;
22531;SDS011;11432;46.924;7.114;2022-07-15T06:27:39;5.28;;;2.83;;
22531;SDS011;11432;46.924;7.114;2022-07-15T06:30:05;6.95;;;2.72;;
22531;SDS011;11432;46.924;7.114;2022-07-15T06:32:31;5.68;;;2.67;;
22531;SDS011;11432;46.924;7.114;2022-07-15T06:34:58;8.02;;;3.00;;
22531;SDS011;11432;46.924;7.114;2022-07-15T06:37:23;11.55;;;2.95;;
22531;SDS011;11432;46.924;7.114;2022-07-15T06:39:49;4.75;;;2.88;;
22531;SDS011;11432;46.924;7.114;2022-07-15T06:42:15;6.75;;;3.00;;
22531;SDS011;11432;46.924;7.114;2022-07-15T06:44:41;12.43;;;3.13;;
22531;SDS011;11432;46.924;7.114;2022-07-15T06:47:06;7.28;;;2.90;;
22531;SDS011;11432;46.924;7.114;2022-07-15T06:49:35;8.98;;;3.45;;
22531;SDS011;11432;46.924;7.114;2022-07-15T06:52:01;9.17;;;3.23;;
22531;SDS011;11432;46.924;7.114;2022-07-15T06:54:27;9.60;;;3.15;;
22531;SDS011;11432;46.924;7.114;2022-07-15T06:56:53;8.52;;;3.15;;
22531;SDS011;11432;46.924;7.114;2022-07-15T06:59:19;6.43;;;2.78;;
22531;SDS011;11432;46.924;7.114;2022-07-15T07:01:45;10.13;;;2.78;;
22531;SDS011;11432;46.924;7.114;2022-07-15T07:04:11;8.23;;;2.42;;
22531;SDS011;11432;46.924;7.114;2022-07-15T07:06:37;5.88;;;2.65;;
22531;SDS011;11432;46.924;7.114;2022-07-15T07:09:04;6.68;;;2.85;;
22531;SDS011;11432;46.924;7.114;2022-07-15T07:11:30;5.72;;;2.60;;
22531;SDS011;11432;46.924;7.114;2022-07-15T07:13:56;8.82;;;2.97;;
22531;SDS011;11432;46.924;7.114;2022-07-15T07:16:21;5.47;;;3.08;;
22531;SDS011;11432;46.924;7.114;2022-07-15T07:18:47;4.65;;;2.40;;
22531;SDS011;11432;46.924;7.114;2022-07-15T07:21:15;8.82;;;2.88;;
22531;SDS011;11432;46.924;7.114;2022-07-15T07:23:42;5.20;;;2.60;;
22531;SDS011;11432;46.924;7.114;2022-07-15T07:26:08;10.10;;;2.83;;
22531;SDS011;11432;46.924;7.114;2022-07-15T07:28:35;7.85;;;3.13;;
22531;SDS011;11432;46.924;7.114;2022-07-15T07:31:04;11.02;;;4.18;;
22531;SDS011;11432;46.924;7.114;2022-07-15T07:33:30;7.55;;;2.63;;
22531;SDS011;11432;46.924;7.114;2022-07-15T07:35:55;4.25;;;2.60;;
22531;SDS011;11432;46.924;7.114;2022-07-15T07:38:21;7.70;;;2.78;;
22531;SDS011;11432;46.924;7.114;2022-07-15T07:40:47;5.53;;;2.78;;
22531;SDS011;11432;46.924;7.114;2022-07-15T07:43:13;6.05;;;2.75;;
22531;SDS011;11432;46.924;7.114;2022-07-15T07:45:43;7.40;;;3.10;;
22531;SDS011;11432;46.924;7.114;2022-07-15T07:48:09;3.85;;;2.55;;
22531;SDS011;11432;46.924;7.114;2022-07-15T07:50:34;5.10;;;2.60;;
22531;SDS011;11432;46.924;7.114;2022-07-15T07:53:00;5.07;;;2.45;;
22531;SDS011;11432;46.924;7.114;2022-07-15T07:55:26;6.97;;;2.92;;
22531;SDS011;11432;46.924;7.114;2022-07-15T07:57:54;8.13;;;2.60;;
22531;SDS011;11432;46.924;7.114;2022-07-15T08:00:22;8.25;;;2.72;;
22531;SDS011;11432;46.924;7.114;2022-07-15T08:02:48;6.78;;;3.08;;
22531;SDS011;11432;46.924;7.114;2022-07-15T08:05:15;8.43;;;2.90;;
22531;SDS011;11432;46.924;7.114;2022-07-15T08:07:42;6.38;;;2.50;;
22531;SDS011;11432;46.924;7.114;2022-07-15T08:10:09;7.35;;;2.72;;
22531;SDS011;11432;46.924;7.114;2022-07-15T08:12:35;7.35;;;2.75;;
22531;SDS011;11432;46.924;7.114;2022-07-15T08:15:05;5.95;;;2.60;;
22531;SDS011;11432;46.924;7.114;2022-07-15T08:17:33;7.50;;;2.85;;
22531;SDS011;11432;46.924;7.114;2022-07-15T08:19:59;10.20;;;2.78;;
22531;SDS011;11432;46.924;7.114;2022-07-15T08:22:24;5.97;;;2.55;;
22531;SDS011;11432;46.924;7.114;2022-07-15T08:24:50;5.28;;;2.67;;
22531;SDS011;11432;46.924;7.114;2022-07-15T08:27:16;5.15;;;2.70;;
22531;SDS011;11432;46.924;7.114;2022-07-15T08:29:43;7.55;;;2.80;;
22531;SDS011;11432;46.924;7.114;2022-07-15T08:32:09;5.57;;;2.97;;
22531;SDS011;11432;46.924;7.114;2022-07-15T08:34:34;5.43;;;2.85;;
22531;SDS011;11432;46.924;7.114;2022-07-15T08:37:00;10.07;;;2.53;;
22531;SDS011;11432;46.924;7.114;2022-07-15T08:39:26;10.00;;;2.63;;
22531;SDS011;11432;46.924;7.114;2022-07-15T08:41:51;8.75;;;2.78;;
22531;SDS011;11432;46.924;7.114;2022-07-15T08:44:17;7.90;;;2.83;;
22531;SDS011;11432;46.924;7.114;2022-07-15T08:46:46;11.70;;;3.00;;
22531;SDS011;11432;46.924;7.114;2022-07-15T08:49:13;4.47;;;2.20;;
22531;SDS011;11432;46.924;7.114;2022-07-15T08:51:47;6.68;;;2.75;;
22531;SDS011;11432;46.924;7.114;2022-07-15T08:56:40;7.90;;;2.83;;
22531;SDS011;11432;46.924;7.114;2022-07-15T08:59:08;5.43;;;2.90;;
22531;SDS011;11432;46.924;7.114;2022-07-15T09:01:34;6.38;;;2.58;;
22531;SDS011;11432;46.924;7.114;2022-07-15T09:04:07;3.95;;;2.60;;
22531;SDS011;11432;46.924;7.114;2022-07-15T09:06:42;4.00;;;2.70;;
22531;SDS011;11432;46.924;7.114;2022-07-15T09:09:26;6.63;;;2.33;;
22531;SDS011;11432;46.924;7.114;2022-07-15T09:12:06;5.55;;;2.90;;
22531;SDS011;11432;46.924;7.114;2022-07-15T09:14:34;6.95;;;2.78;;
22531;SDS011;11432;46.924;7.114;2022-07-15T09:17:20;8.68;;;2.92;;
22531;SDS011;11432;46.924;7.114;2022-07-15T09:22:25;5.90;;;3.28;;
22531;SDS011;11432;46.924;7.114;2022-07-15T09:25:09;7.93;;;2.70;;
22531;SDS011;11432;46.924;7.114;2022-07-15T09:27:39;5.10;;;2.75;;
22531;SDS011;11432;46.924;7.114;2022-07-15T09:33:02;6.70;;;3.00;;
22531;SDS011;11432;46.924;7.114;2022-07-15T09:35:48;6.07;;;2.83;;
22531;SDS011;11432;46.924;7.114;2022-07-15T09:41:11;6.35;;;2.97;;
22531;SDS011;11432;46.924;7.114;2022-07-15T09:43:52;3.83;;;2.65;;
22531;SDS011;11432;46.924;7.114;2022-07-15T09:46:20;4.35;;;2.58;;
22531;SDS011;11432;46.924;7.114;2022-07-15T09:48:46;4.25;;;2.70;;
22531;SDS011;11432;46.924;7.114;2022-07-15T09:51:13;3.88;;;2.40;;
22531;SDS011;11432;46.924;7.114;2022-07-15T09:53:40;7.25;;;2.80;;
22531;SDS011;11432;46.924;7.114;2022-07-15T09:56:07;6.75;;;2.72;;
22531;SDS011;11432;46.924;7.114;2022-07-15T09:58:38;3.30;;;2.33;;
22531;SDS011;11432;46.924;7.114;2022-07-15T10:01:06;5.85;;;2.58;;
22531;SDS011;11432;46.924;7.114;2022-07-15T10:03:33;6.78;;;2.25;;
22531;SDS011;11432;46.924;7.114;2022-07-15T10:05:59;6.75;;;2.58;;
22531;SDS011;11432;46.924;7.114;2022-07-15T10:08:28;3.35;;;2.58;;
22531;SDS011;11432;46.924;7.114;2022-07-15T10:10:55;4.78;;;2.42;;
22531;SDS011;11432;46.924;7.114;2022-07-15T10:25:22;6.35;;;2.67;;
22531;SDS011;11432;46.924;7.114;2022-07-15T10:28:08;4.43;;;2.35;;
22531;SDS011;11432;46.924;7.114;2022-07-15T10:30:41;7.63;;;2.35;;
22531;SDS011;11432;46.924;7.114;2022-07-15T10:33:26;5.70;;;2.40;;
22531;SDS011;11432;46.924;7.114;2022-07-15T10:35:52;6.47;;;2.35;;
22531;SDS011;11432;46.924;7.114;2022-07-15T10:43:42;4.40;;;2.10;;
22531;SDS011;11432;46.924;7.114;2022-07-15T10:48:42;6.07;;;2.60;;
22531;SDS011;11432;46.924;7.114;2022-07-15T10:51:08;5.75;;;2.58;;
22531;SDS011;11432;46.924;7.114;2022-07-15T10:53:37;7.85;;;2.78;;
22531;SDS011;11432;46.924;7.114;2022-07-15T11:01:45;4.45;;;2.35;;
22531;SDS011;11432;46.924;7.114;2022-07-15T11:04:16;7.47;;;2.65;;
22531;SDS011;11432;46.924;7.114;2022-07-15T11:17:37;6.40;;;2.45;;
22531;SDS011;11432;46.924;7.114;2022-07-15T11:20:05;4.93;;;2.80;;
22531;SDS011;11432;46.924;7.114;2022-07-15T11:22:44;6.68;;;2.47;;
22531;SDS011;11432;46.924;7.114;2022-07-15T11:25:24;5.15;;;2.13;;
22531;SDS011;11432;46.924;7.114;2022-07-15T11:27:56;4.03;;;2.40;;
22531;SDS011;11432;46.924;7.114;2022-07-15T11:33:11;5.38;;;2.58;;
22531;SDS011;11432;46.924;7.114;2022-07-15T11:35:43;6.65;;;2.83;;
22531;SDS011;11432;46.924;7.114;2022-07-15T11:38:15;4.53;;;2.20;;
22531;SDS011;11432;46.924;7.114;2022-07-15T11:40:44;5.53;;;2.45;;
22531;SDS011;11432;46.924;7.114;2022-07-15T11:43:36;7.82;;;2.45;;
22531;SDS011;11432;46.924;7.114;2022-07-15T11:46:21;7.70;;;2.47;;
22531;SDS011;11432;46.924;7.114;2022-07-15T11:48:48;3.53;;;2.38;;
22531;SDS011;11432;46.924;7.114;2022-07-15T11:51:14;4.80;;;2.67;;
22531;SDS011;11432;46.924;7.114;2022-07-15T11:53:44;9.93;;;2.90;;
22531;SDS011;11432;46.924;7.114;2022-07-15T11:56:13;6.40;;;2.83;;
22531;SDS011;11432;46.924;7.114;2022-07-15T11:58:43;3.97;;;2.20;;
22531;SDS011;11432;46.924;7.114;2022-07-15T12:01:12;10.70;;;2.55;;
22531;SDS011;11432;46.924;7.114;2022-07-15T12:03:41;5.57;;;2.45;;
22531;SDS011;11432;46.924;7.114;2022-07-15T12:08:54;5.30;;;2.50;;
22531;SDS011;11432;46.924;7.114;2022-07-15T12:11:25;3.38;;;2.50;;
22531;SDS011;11432;46.924;7.114;2022-07-15T12:14:02;4.43;;;2.50;;
22531;SDS011;11432;46.924;7.114;2022-07-15T12:16:45;5.35;;;2.85;;
22531;SDS011;11432;46.924;7.114;2022-07-15T12:19:17;5.85;;;2.63;;
22531;SDS011;11432;46.924;7.114;2022-07-15T12:21:46;6.53;;;2.80;;
22531;SDS011;11432;46.924;7.114;2022-07-15T12:24:17;6.75;;;3.05;;
22531;SDS011;11432;46.924;7.114;2022-07-15T12:29:16;4.50;;;2.72;;
22531;SDS011;11432;46.924;7.114;2022-07-15T12:31:50;5.28;;;2.72;;
22531;SDS011;11432;46.924;7.114;2022-07-15T12:34:17;10.70;;;3.42;;
22531;SDS011;11432;46.924;7.114;2022-07-15T12:36:43;5.07;;;2.72;;
22531;SDS011;11432;46.924;7.114;2022-07-15T12:39:13;8.80;;;2.70;;
22531;SDS011;11432;46.924;7.114;2022-07-15T12:41:44;5.25;;;3.03;;
22531;SDS011;11432;46.924;7.114;2022-07-15T12:44:21;4.18;;;2.60;;
22531;SDS011;11432;46.924;7.114;2022-07-15T12:47:20;5.65;;;2.80;;
22531;SDS011;11432;46.924;7.114;2022-07-15T12:54:38;5.03;;;2.78;;
22531;SDS011;11432;46.924;7.114;2022-07-15T12:57:03;3.80;;;2.60;;
22531;SDS011;11432;46.924;7.114;2022-07-15T12:59:29;5.20;;;2.60;;
22531;SDS011;11432;46.924;7.114;2022-07-15T13:02:04;8.35;;;2.90;;
22531;SDS011;11432;46.924;7.114;2022-07-15T13:04:30;4.90;;;2.78;;
22531;SDS011;11432;46.924;7.114;2022-07-15T13:06:56;7.78;;;2.83;;
22531;SDS011;11432;46.924;7.114;2022-07-15T13:09:21;5.15;;;2.58;;
22531;SDS011;11432;46.924;7.114;2022-07-15T13:11:56;4.22;;;2.50;;
22531;SDS011;11432;46.924;7.114;2022-07-15T13:14:24;6.55;;;2.10;;
22531;SDS011;11432;46.924;7.114;2022-07-15T13:16:50;11.25;;;2.90;;
22531;SDS011;11432;46.924;7.114;2022-07-15T13:19:15;3.95;;;2.42;;
22531;SDS011;11432;46.924;7.114;2022-07-15T13:21:41;4.82;;;3.00;;
22531;SDS011;11432;46.924;7.114;2022-07-15T13:24:07;10.07;;;3.50;;
22531;SDS011;11432;46.924;7.114;2022-07-15T13:26:32;4.57;;;2.90;;
22531;SDS011;11432;46.924;7.114;2022-07-15T13:28:58;5.25;;;2.65;;
22531;SDS011;11432;46.924;7.114;2022-07-15T13:31:23;5.38;;;3.05;;
22531;SDS011;11432;46.924;7.114;2022-07-15T13:33:49;3.90;;;2.72;;
22531;SDS011;11432;46.924;7.114;2022-07-15T13:36:15;4.93;;;2.60;;
22531;SDS011;11432;46.924;7.114;2022-07-15T13:38:40;5.15;;;2.40;;
22531;SDS011;11432;46.924;7.114;2022-07-15T13:41:06;3.72;;;2.17;;
22531;SDS011;11432;46.924;7.114;2022-07-15T13:43:32;4.00;;;2.40;;
22531;SDS011;11432;46.924;7.114;2022-07-15T13:45:57;6.20;;;2.38;;
22531;SDS011;11432;46.924;7.114;2022-07-15T13:48:23;8.32;;;2.80;;
22531;SDS011;11432;46.924;7.114;2022-07-15T13:50:49;7.78;;;2.92;;
22531;SDS011;11432;46.924;7.114;2022-07-15T13:53:33;6.97;;;2.80;;
22531;SDS011;11432;46.924;7.114;2022-07-15T13:55:59;6.47;;;2.88;;
22531;SDS011;11432;46.924;7.114;2022-07-15T13:58:24;4.78;;;2.60;;
22531;SDS011;11432;46.924;7.114;2022-07-15T14:00:50;7.20;;;2.38;;
22531;SDS011;11432;46.924;7.114;2022-07-15T14:03:16;4.63;;;2.53;;
22531;SDS011;11432;46.924;7.114;2022-07-15T14:05:41;4.78;;;2.50;;
22531;SDS011;11432;46.924;7.114;2022-07-15T14:08:07;3.97;;;2.38;;
22531;SDS011;11432;46.924;7.114;2022-07-15T14:10:33;3.83;;;2.60;;
22531;SDS011;11432;46.924;7.114;2022-07-15T14:12:58;3.45;;;2.22;;
22531;SDS011;11432;46.924;7.114;2022-07-15T14:15:24;7.07;;;2.50;;
22531;SDS011;11432;46.924;7.114;2022-07-15T14:17:50;3.88;;;2.15;;
22531;SDS011;11432;46.924;7.114;2022-07-15T14:20:15;4.25;;;2.28;;
22531;SDS011;11432;46.924;7.114;2022-07-15T14:22:42;5.90;;;2.20;;
22531;SDS011;11432;46.924;7.114;2022-07-15T14:25:07;4.72;;;2.53;;
22531;SDS011;11432;46.924;7.114;2022-07-15T14:27:34;4.43;;;2.22;;
22531;SDS011;11432;46.924;7.114;2022-07-15T14:30:00;4.32;;;2.38;;
22531;SDS011;11432;46.924;7.114;2022-07-15T14:32:26;5.45;;;2.28;;
22531;SDS011;11432;46.924;7.114;2022-07-15T14:34:52;6.03;;;2.42;;
22531;SDS011;11432;46.924;7.114;2022-07-15T14:37:17;5.88;;;2.63;;
22531;SDS011;11432;46.924;7.114;2022-07-15T14:39:43;3.65;;;2.15;;
22531;SDS011;11432;46.924;7.114;2022-07-15T14:42:09;5.38;;;2.90;;
22531;SDS011;11432;46.924;7.114;2022-07-15T14:44:34;5.55;;;2.33;;
22531;SDS011;11432;46.924;7.114;2022-07-15T14:47:00;5.63;;;2.63;;
22531;SDS011;11432;46.924;7.114;2022-07-15T14:49:26;5.32;;;2.80;;
22531;SDS011;11432;46.924;7.114;2022-07-15T14:51:52;6.55;;;2.53;;
22531;SDS011;11432;46.924;7.114;2022-07-15T14:54:17;7.40;;;2.88;;
22531;SDS011;11432;46.924;7.114;2022-07-15T14:56:43;5.90;;;3.05;;
22531;SDS011;11432;46.924;7.114;2022-07-15T14:59:09;4.18;;;2.70;;
22531;SDS011;11432;46.924;7.114;2022-07-15T15:01:34;3.60;;;2.60;;
22531;SDS011;11432;46.924;7.114;2022-07-15T15:04:00;5.97;;;3.05;;
22531;SDS011;11432;46.924;7.114;2022-07-15T15:06:25;7.30;;;2.70;;
22531;SDS011;11432;46.924;7.114;2022-07-15T15:08:51;4.95;;;2.33;;
22531;SDS011;11432;46.924;7.114;2022-07-15T15:11:17;5.70;;;2.53;;
22531;SDS011;11432;46.924;7.114;2022-07-15T15:13:42;5.03;;;2.60;;
22531;SDS011;11432;46.924;7.114;2022-07-15T15:16:08;3.17;;;2.58;;
22531;SDS011;11432;46.924;7.114;2022-07-15T15:18:34;5.63;;;3.00;;
22531;SDS011;11432;46.924;7.114;2022-07-15T15:21:00;4.22;;;2.88;;
22531;SDS011;11432;46.924;7.114;2022-07-15T15:23:25;12.70;;;2.70;;
22531;SDS011;11432;46.924;7.114;2022-07-15T15:25:51;4.93;;;2.33;;
22531;SDS011;11432;46.924;7.114;2022-07-15T15:28:35;5.70;;;3.30;;
22531;SDS011;11432;46.924;7.114;2022-07-15T15:31:01;6.07;;;2.65;;
22531;SDS011;11432;46.924;7.114;2022-07-15T15:33:26;6.28;;;2.97;;
22531;SDS011;11432;46.924;7.114;2022-07-15T15:35:52;6.55;;;2.90;;
22531;SDS011;11432;46.924;7.114;2022-07-15T15:38:18;9.80;;;2.85;;
22531;SDS011;11432;46.924;7.114;2022-07-15T15:40:43;4.97;;;2.65;;
22531;SDS011;11432;46.924;7.114;2022-07-15T15:43:09;6.28;;;2.58;;
22531;SDS011;11432;46.924;7.114;2022-07-15T15:45:36;4.35;;;2.83;;
22531;SDS011;11432;46.924;7.114;2022-07-15T15:48:02;6.70;;;2.60;;
22531;SDS011;11432;46.924;7.114;2022-07-15T15:50:28;3.50;;;2.50;;
22531;SDS011;11432;46.924;7.114;2022-07-15T15:52:54;6.03;;;3.03;;